Time;durP1;ratioP1;P1;durP2;ratioP2;P2;SDS_P1;SDS_P2;PMS_P1;PMS_P2;Temp;Humidity;BMP_temperature;BMP_pressure;BME280_temperature;BME280_humidity;BME280_pressure;Samples;Min_cycle;Max_cycle;Signal;HPM_P1;HPM_P2
2023/12/26 00:02:08;;;;;;;0.10;0.10;;;10.80;99.90;;;;;;5038411;28;20053;-66
2023/12/26 00:04:34;;;;;;;0.10;0.10;;;10.50;99.90;;;;;;5051668;28;20515;-66
2023/12/26 00:07:00;;;;;;;0.10;0.10;;;10.50;99.90;;;;;;5051321;28;20130;-65
2023/12/26 00:09:25;;;;;;;2.75;0.75;;;10.50;99.90;;;;;;5051652;28;20048;-66
2023/12/26 00:11:51;;;;;;;0.20;0.20;;;10.60;99.90;;;;;;5051735;28;20041;-65
2023/12/26 00:14:17;;;;;;;0.10;0.10;;;10.20;99.90;;;;;;5064327;28;20075;-66
2023/12/26 00:16:43;;;;;;;0.10;0.10;;;10.70;99.90;;;;;;5051360;28;20049;-65
2023/12/26 00:19:09;;;;;;;0.10;0.10;;;10.50;99.90;;;;;;5051534;28;20045;-65
2023/12/26 00:21:37;;;;;;;0.10;0.10;;;10.50;99.90;;;;;;5051716;28;20378;-65
2023/12/26 00:24:04;;;;;;;0.10;0.10;;;10.10;99.90;;;;;;5051882;28;20049;-66
2023/12/26 00:26:30;;;;;;;0.20;0.20;;;10.60;99.90;;;;;;5084264;28;20045;-66
2023/12/26 00:28:55;;;;;;;1.35;0.85;;;10.60;99.90;;;;;;5050915;28;20052;-66
2023/12/26 00:31:21;;;;;;;0.15;0.15;;;10.60;99.90;;;;;;5051970;28;20386;-65
2023/12/26 00:33:48;;;;;;;0.10;0.10;;;11.00;99.90;;;;;;5053364;28;20143;-66
2023/12/26 00:36:18;;;;;;;0.22;0.22;;;10.50;99.90;;;;;;5056304;28;20099;-66
2023/12/26 00:38:45;;;;;;;0.10;0.10;;;10.70;99.90;;;;;;5056754;28;20123;-66
2023/12/26 00:41:12;;;;;;;0.38;0.20;;;10.90;99.90;;;;;;5056165;28;20053;-65
2023/12/26 00:43:38;;;;;;;0.10;0.10;;;10.80;99.90;;;;;;5089643;28;20409;-66
2023/12/26 00:46:04;;;;;;;0.30;0.30;;;11.10;99.90;;;;;;5088826;28;20041;-66
2023/12/26 00:48:29;;;;;;;0.10;0.10;;;10.50;99.90;;;;;;5057055;28;20056;-66
2023/12/26 00:50:55;;;;;;;0.10;0.10;;;10.70;99.90;;;;;;5055935;28;20477;-67
2023/12/26 00:53:22;;;;;;;2.80;0.85;;;10.70;99.90;;;;;;5088921;28;20091;-66
2023/12/26 00:55:47;;;;;;;0.13;0.13;;;10.90;99.90;;;;;;5055899;28;20410;-67
2023/12/26 00:58:13;;;;;;;2.50;0.47;;;10.50;99.90;;;;;;5056900;28;20048;-67
2023/12/26 01:00:39;;;;;;;1.20;1.10;;;10.80;99.90;;;;;;5055781;28;20053;-66
2023/12/26 01:03:05;;;;;;;0.17;0.17;;;11.00;99.90;;;;;;5054780;28;20697;-67
2023/12/26 01:05:30;;;;;;;1.55;0.30;;;10.30;99.90;;;;;;5055350;28;20500;-69
2023/12/26 01:07:57;;;;;;;0.25;0.25;;;10.70;99.90;;;;;;5087889;28;20068;-68
2023/12/26 01:10:23;;;;;;;0.17;0.17;;;10.50;99.90;;;;;;5055659;28;20123;-67
2023/12/26 01:12:48;;;;;;;0.10;0.10;;;11.00;99.90;;;;;;5055452;28;20133;-67
2023/12/26 01:15:14;;;;;;;0.32;0.32;;;11.10;99.90;;;;;;5055436;28;20138;-67
2023/12/26 01:17:40;;;;;;;0.25;0.25;;;11.00;99.90;;;;;;5053730;28;20076;-67
2023/12/26 01:20:06;;;;;;;10.25;0.35;;;11.00;99.90;;;;;;5053933;28;20045;-68
2023/12/26 01:22:32;;;;;;;;;;;10.70;99.90;;;;;;5054815;28;20496;-67
2023/12/26 01:24:58;;;;;;;0.20;0.20;;;10.40;99.90;;;;;;5052893;28;19924;-67
2023/12/26 01:27:24;;;;;;;0.10;0.10;;;10.50;99.90;;;;;;5056522;28;20053;-67
2023/12/26 01:29:50;;;;;;;0.10;0.10;;;10.90;99.90;;;;;;5054742;28;20045;-67
2023/12/26 01:32:16;;;;;;;0.10;0.10;;;10.60;99.90;;;;;;5056247;28;20500;-69
2023/12/26 01:34:41;;;;;;;;;;;10.30;99.90;;;;;;5054443;28;20045;-67
2023/12/26 01:37:07;;;;;;;11.88;0.75;;;10.50;99.90;;;;;;5056406;28;19998;-67
2023/12/26 01:39:33;;;;;;;0.20;0.20;;;10.70;99.90;;;;;;5055894;28;20445;-67
2023/12/26 01:41:58;;;;;;;0.10;0.10;;;10.70;99.90;;;;;;5056830;28;20104;-69
2023/12/26 01:44:24;;;;;;;0.20;0.20;;;10.20;99.90;;;;;;5044467;28;20389;-67
2023/12/26 01:46:50;;;;;;;1.17;0.65;;;10.40;99.90;;;;;;5056612;28;20124;-68
2023/12/26 01:49:16;;;;;;;0.80;0.45;;;10.20;99.90;;;;;;5044405;28;20431;-67
2023/12/26 01:51:44;;;;;;;0.10;0.10;;;10.60;99.90;;;;;;5056678;28;20045;-67
2023/12/26 01:54:10;;;;;;;1.88;0.88;;;10.60;99.90;;;;;;5044682;28;20480;-67
2023/12/26 01:56:36;;;;;;;;;;;10.70;99.90;;;;;;5058393;28;20045;-67
2023/12/26 01:59:02;;;;;;;1.20;0.90;;;10.60;99.90;;;;;;5056806;28;19921;-68
2023/12/26 02:01:30;;;;;;;0.20;0.20;;;11.00;99.90;;;;;;5055172;28;20068;-67
2023/12/26 02:03:59;;;;;;;0.10;0.10;;;10.60;99.90;;;;;;5054509;28;20111;-67
2023/12/26 02:06:24;;;;;;;0.32;0.32;;;10.70;99.90;;;;;;5053794;28;20182;-68
2023/12/26 02:08:50;;;;;;;0.63;0.63;;;10.70;99.90;;;;;;5052851;28;20124;-67
2023/12/26 02:11:16;;;;;;;0.20;0.20;;;10.70;99.90;;;;;;5055170;28;20137;-68
2023/12/26 02:13:42;;;;;;;1.10;0.32;;;10.50;99.90;;;;;;5072361;28;20507;-67
2023/12/26 02:16:16;;;;;;;0.10;0.10;;;10.60;99.90;;;;;;5105407;28;20087;-70
2023/12/26 02:18:42;;;;;;;0.50;0.47;;;10.40;99.90;;;;;;5072218;28;20075;-68
2023/12/26 02:21:08;;;;;;;0.45;0.45;;;10.40;99.90;;;;;;5102396;28;20048;-68
2023/12/26 02:23:36;;;;;;;0.68;0.68;;;10.50;99.90;;;;;;5062786;28;20040;-68
2023/12/26 02:26:03;;;;;;;19.00;0.95;;;10.60;99.90;;;;;;5071874;28;20859;-71
2023/12/26 02:28:31;;;;;;;0.75;0.63;;;10.60;99.90;;;;;;5073075;28;20555;-68
2023/12/26 02:31:02;;;;;;;1.45;1.20;;;10.30;99.90;;;;;;5071829;28;20044;-68
2023/12/26 02:33:30;;;;;;;0.60;0.60;;;10.30;99.90;;;;;;5072233;28;20055;-68
2023/12/26 02:35:56;;;;;;;1.33;0.65;;;10.50;99.90;;;;;;5071746;28;20489;-69
2023/12/26 02:38:22;;;;;;;0.10;0.10;;;10.70;99.90;;;;;;5071126;28;20056;-68
2023/12/26 02:40:51;;;;;;;1.55;1.45;;;10.40;99.90;;;;;;5070435;28;20067;-67
2023/12/26 02:43:22;;;;;;;0.20;0.20;;;10.10;99.90;;;;;;5072608;28;20071;-67
2023/12/26 02:45:49;;;;;;;0.28;0.28;;;10.40;99.90;;;;;;5071026;28;20053;-67
2023/12/26 02:48:15;;;;;;;;;;;10.30;99.90;;;;;;5072985;28;20044;-67
2023/12/26 02:50:41;;;;;;;0.28;0.28;;;10.30;99.90;;;;;;5071637;28;19924;-69
2023/12/26 02:53:07;;;;;;;0.10;0.10;;;9.90;99.90;;;;;;5070555;28;20056;-68
2023/12/26 02:55:33;;;;;;;0.30;0.30;;;9.80;99.90;;;;;;5103255;28;20097;-68
2023/12/26 02:57:59;;;;;;;1.95;1.20;;;10.30;99.90;;;;;;5071316;28;20041;-71
2023/12/26 03:00:24;;;;;;;8.95;1.55;;;9.90;99.90;;;;;;5065455;28;20040;-68
2023/12/26 03:02:50;;;;;;;0.43;0.43;;;9.90;99.90;;;;;;5053065;28;20067;-68
2023/12/26 03:05:16;;;;;;;0.20;0.20;;;10.20;99.90;;;;;;5058472;28;20033;-68
2023/12/26 03:07:41;;;;;;;3.20;1.05;;;9.90;99.90;;;;;;5070897;28;20043;-68
2023/12/26 03:10:09;;;;;;;0.20;0.20;;;9.80;99.90;;;;;;5072054;28;20045;-67
2023/12/26 03:12:35;;;;;;;1.02;1.02;;;10.40;99.90;;;;;;5071455;28;20098;-67
2023/12/26 03:15:02;;;;;;;0.40;0.40;;;9.80;99.90;;;;;;5098866;28;20083;-71
2023/12/26 03:17:28;;;;;;;0.55;0.55;;;9.90;99.90;;;;;;5035116;28;20396;-74
2023/12/26 03:19:54;;;;;;;0.95;0.60;;;9.90;99.90;;;;;;5065646;28;20055;-69
2023/12/26 03:22:20;;;;;;;0.20;0.20;;;9.90;99.90;;;;;;5064081;28;20064;-70
2023/12/26 03:24:46;;;;;;;;;;;9.90;99.90;;;;;;5070876;28;20139;-68
2023/12/26 03:27:11;;;;;;;0.40;0.40;;;9.70;99.90;;;;;;5071296;28;20007;-68
2023/12/26 03:29:38;;;;;;;0.28;0.28;;;9.90;99.90;;;;;;5050962;28;20477;-67
2023/12/26 03:32:04;;;;;;;0.17;0.17;;;9.80;99.90;;;;;;5051967;28;20057;-69
2023/12/26 03:34:30;;;;;;;12.45;1.05;;;10.00;99.90;;;;;;5070510;28;20074;-69
2023/12/26 03:36:56;;;;;;;0.20;0.20;;;9.50;99.90;;;;;;5071913;28;20052;-68
2023/12/26 03:39:21;;;;;;;0.20;0.20;;;9.60;99.90;;;;;;5070850;28;20047;-68
2023/12/26 03:41:48;;;;;;;1.70;1.40;;;9.70;99.90;;;;;;5072105;28;20059;-68
2023/12/26 03:44:18;;;;;;;0.20;0.20;;;9.60;99.90;;;;;;5071934;28;20219;-69
2023/12/26 03:46:44;;;;;;;7.88;0.90;;;9.60;99.90;;;;;;5057601;28;20060;-69
2023/12/26 03:49:10;;;;;;;0.20;0.20;;;9.60;99.90;;;;;;5071982;28;20124;-70
2023/12/26 03:51:36;;;;;;;0.20;0.20;;;9.50;99.90;;;;;;5070231;28;20044;-71
2023/12/26 03:54:03;;;;;;;0.38;0.30;;;9.70;99.90;;;;;;5071491;28;20393;-68
2023/12/26 03:56:33;;;;;;;0.32;0.32;;;9.50;99.90;;;;;;5070927;28;20052;-69
2023/12/26 03:59:00;;;;;;;0.17;0.17;;;9.10;99.90;;;;;;5070556;28;20048;-68
2023/12/26 04:01:27;;;;;;;0.90;0.90;;;9.30;99.90;;;;;;5057256;28;20057;-69
2023/12/26 04:03:53;;;;;;;0.63;0.35;;;9.10;99.90;;;;;;5071502;28;20052;-70
2023/12/26 04:06:19;;;;;;;;;;;9.70;99.90;;;;;;5057636;28;20051;-68
2023/12/26 04:08:45;;;;;;;3.10;0.70;;;9.00;99.90;;;;;;5058851;28;19924;-68
2023/12/26 04:11:11;;;;;;;0.20;0.20;;;9.40;99.90;;;;;;5069666;28;20290;-69
2023/12/26 04:13:38;;;;;;;1.00;0.63;;;9.50;99.90;;;;;;5071406;28;20069;-69
2023/12/26 04:16:04;;;;;;;2.63;1.33;;;9.10;99.90;;;;;;5070980;28;20040;-68
2023/12/26 04:18:29;;;;;;;1.08;0.30;;;9.10;99.90;;;;;;5104223;28;20480;-68
2023/12/26 04:20:55;;;;;;;0.20;0.20;;;9.20;99.90;;;;;;5071261;28;20077;-68
2023/12/26 04:23:21;;;;;;;2.10;1.17;;;9.00;99.90;;;;;;5070028;28;20040;-69
2023/12/26 04:25:47;;;;;;;0.20;0.20;;;9.20;99.90;;;;;;5103483;28;20143;-69
2023/12/26 04:28:12;;;;;;;2.88;0.80;;;9.10;99.90;;;;;;5103865;28;20480;-71
2023/12/26 04:30:39;;;;;;;1.10;0.65;;;9.20;99.90;;;;;;5070141;28;20510;-69
2023/12/26 04:33:07;;;;;;;0.25;0.20;;;9.30;99.90;;;;;;5070995;28;20044;-70
2023/12/26 04:35:34;;;;;;;0.25;0.25;;;9.20;99.90;;;;;;5102700;28;20055;-69
2023/12/26 04:38:00;;;;;;;0.52;0.52;;;9.60;99.90;;;;;;5070737;28;20499;-68
2023/12/26 04:40:26;;;;;;;9.07;1.08;;;9.60;99.90;;;;;;5070222;28;20059;-69
2023/12/26 04:42:52;;;;;;;1.83;1.40;;;9.70;99.90;;;;;;5069548;28;20053;-70
2023/12/26 04:45:17;;;;;;;0.30;0.30;;;9.60;99.90;;;;;;5069635;28;20049;-68
2023/12/26 04:47:43;;;;;;;1.65;0.68;;;9.40;99.90;;;;;;5069965;28;20045;-69
2023/12/26 04:50:09;;;;;;;0.17;0.17;;;9.60;99.90;;;;;;5070664;28;20500;-68
2023/12/26 04:52:35;;;;;;;0.65;0.38;;;9.50;99.90;;;;;;5071206;28;20041;-69
2023/12/26 04:55:01;;;;;;;0.35;0.35;;;9.60;99.90;;;;;;5070686;28;20053;-69
2023/12/26 04:57:27;;;;;;;1.48;0.70;;;9.70;99.90;;;;;;5061842;28;20041;-68
2023/12/26 04:59:53;;;;;;;1.67;0.82;;;9.50;99.20;;;;;;5051043;28;20053;-68
2023/12/26 05:02:18;;;;;;;3.00;0.95;;;9.40;96.70;;;;;;5049818;28;20516;-68
2023/12/26 05:04:44;;;;;;;0.55;0.55;;;9.50;94.60;;;;;;5051433;28;20045;-69
2023/12/26 05:07:10;;;;;;;0.65;0.60;;;9.70;96.20;;;;;;5051491;28;20049;-69
2023/12/26 05:09:36;;;;;;;0.25;0.25;;;9.40;94.30;;;;;;5050195;28;20401;-69
2023/12/26 05:12:02;;;;;;;0.47;0.47;;;9.50;93.30;;;;;;5051362;28;20397;-70
2023/12/26 05:14:27;;;;;;;;;;;9.50;92.10;;;;;;5064667;28;20080;-69
2023/12/26 05:16:54;;;;;;;9.07;0.75;;;9.50;79.10;;;;;;5070777;28;19960;-68
2023/12/26 05:19:20;;;;;;;0.65;0.65;;;9.50;77.80;;;;;;5069371;28;20048;-68
2023/12/26 05:21:46;;;;;;;0.15;0.15;;;9.40;70.90;;;;;;5074673;28;20052;-69
2023/12/26 05:24:11;;;;;;;0.45;0.38;;;9.50;75.90;;;;;;5072275;28;20041;-69
2023/12/26 05:26:42;;;;;;;3.25;0.40;;;9.30;62.50;;;;;;5074811;28;20041;-73
2023/12/26 05:29:08;;;;;;;0.25;0.25;;;9.60;66.30;;;;;;5106632;28;20053;-69
2023/12/26 05:31:34;;;;;;;;;;;9.70;50.20;;;;;;5075290;28;20361;-69
2023/12/26 05:34:02;;;;;;;1.27;0.65;;;9.80;53.70;;;;;;5059693;28;19928;-68
2023/12/26 05:36:28;;;;;;;0.20;0.20;;;9.90;50.10;;;;;;5065928;28;20040;-69
2023/12/26 05:38:54;;;;;;;2.33;0.90;;;9.50;56.00;;;;;;5055965;28;20118;-68
2023/12/26 05:41:19;;;;;;;2.30;2.15;;;9.40;52.00;;;;;;5074795;28;20102;-68
2023/12/26 05:43:45;;;;;;;0.88;0.85;;;9.50;56.50;;;;;;5073756;28;20045;-69
2023/12/26 05:46:11;;;;;;;0.90;0.85;;;9.20;58.40;;;;;;5065331;28;20044;-68
2023/12/26 05:48:37;;;;;;;1.27;0.30;;;9.10;70.40;;;;;;5069320;28;20053;-69
2023/12/26 05:51:03;;;;;;;2.72;1.65;;;9.30;71.40;;;;;;5074013;28;20052;-69
2023/12/26 05:53:30;;;;;;;0.25;0.25;;;9.30;79.80;;;;;;5072172;28;20083;-68
2023/12/26 05:55:57;;;;;;;0.93;0.30;;;8.90;82.00;;;;;;5073935;28;20135;-69
2023/12/26 05:58:24;;;;;;;1.10;0.70;;;9.40;90.00;;;;;;5073440;28;20064;-68
2023/12/26 06:00:50;;;;;;;1.75;0.85;;;9.30;91.50;;;;;;5063161;28;20397;-68
2023/12/26 06:03:15;;;;;;;0.30;0.30;;;9.00;92.10;;;;;;5066889;28;20049;-68
2023/12/26 06:05:41;;;;;;;0.22;0.22;;;9.40;90.30;;;;;;5063291;28;20048;-69
2023/12/26 06:08:07;;;;;;;0.32;0.32;;;8.90;92.90;;;;;;5072964;28;20062;-70
2023/12/26 06:10:33;;;;;;;0.28;0.28;;;9.10;92.50;;;;;;5063787;28;20488;-69
2023/12/26 06:12:58;;;;;;;1.67;1.02;;;9.00;93.10;;;;;;5053717;28;20096;-68
2023/12/26 06:15:24;;;;;;;0.20;0.20;;;9.50;92.10;;;;;;5054222;28;20040;-69
2023/12/26 06:17:50;;;;;;;10.40;1.05;;;8.80;90.00;;;;;;5054015;28;20124;-68
2023/12/26 06:20:16;;;;;;;0.10;0.10;;;9.30;94.40;;;;;;5036685;28;20052;-69
2023/12/26 06:22:42;;;;;;;;;;;9.00;94.20;;;;;;5054055;28;20041;-68
2023/12/26 06:25:08;;;;;;;0.10;0.10;;;8.90;91.60;;;;;;5054050;28;20381;-70
2023/12/26 06:27:34;;;;;;;0.30;0.30;;;9.20;92.80;;;;;;5054225;28;20102;-69
2023/12/26 06:29:59;;;;;;;0.20;0.20;;;9.20;91.40;;;;;;5054029;28;20492;-69
2023/12/26 06:32:25;;;;;;;0.63;0.63;;;9.10;93.80;;;;;;5052734;28;20056;-68
2023/12/26 06:34:51;;;;;;;0.20;0.20;;;8.90;94.20;;;;;;5053531;28;20041;-69
2023/12/26 06:37:17;;;;;;;0.88;0.88;;;9.20;91.60;;;;;;5053198;28;20060;-69
2023/12/26 06:39:43;;;;;;;3.50;1.13;;;9.00;94.40;;;;;;5053955;28;20102;-69
2023/12/26 06:42:10;;;;;;;2.30;0.82;;;9.10;93.30;;;;;;5054024;28;20095;-69
2023/12/26 06:44:36;;;;;;;0.22;0.22;;;9.10;91.50;;;;;;5053664;28;20047;-69
2023/12/26 06:47:03;;;;;;;6.03;1.30;;;9.00;86.20;;;;;;5053511;28;20048;-69
2023/12/26 06:49:29;;;;;;;0.20;0.20;;;8.90;90.70;;;;;;5052430;28;20045;-71
2023/12/26 06:51:55;;;;;;;0.30;0.30;;;9.30;89.90;;;;;;5066232;28;20393;-68
2023/12/26 06:54:20;;;;;;;0.20;0.20;;;9.40;84.20;;;;;;5052617;28;20044;-69
2023/12/26 06:56:46;;;;;;;0.28;0.28;;;9.20;88.70;;;;;;5053584;28;20037;-68
2023/12/26 06:59:12;;;;;;;2.35;1.40;;;9.00;82.60;;;;;;5053797;28;20044;-69
2023/12/26 07:01:37;;;;;;;0.10;0.10;;;9.10;78.80;;;;;;5055301;28;20057;-69
2023/12/26 07:04:03;;;;;;;0.30;0.30;;;9.10;76.00;;;;;;5062804;28;20059;-69
2023/12/26 07:06:29;;;;;;;1.02;0.40;;;8.80;79.40;;;;;;5053417;28;20481;-69
2023/12/26 07:08:55;;;;;;;0.63;0.60;;;9.20;87.20;;;;;;5053395;28;20099;-69
2023/12/26 07:11:21;;;;;;;0.20;0.20;;;9.00;89.40;;;;;;5053724;28;20117;-69
2023/12/26 07:13:47;;;;;;;2.92;0.57;;;9.30;84.60;;;;;;5052298;28;20049;-70
2023/12/26 07:16:12;;;;;;;0.20;0.20;;;9.20;79.70;;;;;;5054106;28;20435;-69
2023/12/26 07:18:38;;;;;;;4.00;1.13;;;9.10;78.80;;;;;;5053623;28;20059;-69
2023/12/26 07:21:04;;;;;;;0.45;0.45;;;9.30;84.90;;;;;;5052531;28;20064;-69
2023/12/26 07:23:29;;;;;;;1.45;1.15;;;9.30;86.30;;;;;;5053789;28;20124;-69
2023/12/26 07:25:55;;;;;;;0.20;0.20;;;9.00;85.90;;;;;;5054118;28;20041;-69
2023/12/26 07:28:21;;;;;;;0.57;0.57;;;8.80;85.80;;;;;;5053485;28;20045;-69
2023/12/26 07:30:47;;;;;;;6.72;0.95;;;9.00;87.00;;;;;;5054005;28;20749;-68
2023/12/26 07:33:12;;;;;;;0.20;0.20;;;8.90;90.60;;;;;;5052161;28;20060;-70
2023/12/26 07:35:38;;;;;;;2.10;0.68;;;9.00;82.60;;;;;;5053359;28;20087;-69
2023/12/26 07:38:05;;;;;;;0.43;0.43;;;9.10;76.40;;;;;;5051805;28;20048;-68
2023/12/26 07:40:34;;;;;;;3.40;0.95;;;8.70;75.60;;;;;;5052657;28;20057;-69
2023/12/26 07:43:00;;;;;;;0.20;0.20;;;9.30;80.80;;;;;;5050695;28;20064;-69
2023/12/26 07:45:25;;;;;;;1.00;0.60;;;9.20;73.80;;;;;;5061949;28;20037;-69
2023/12/26 07:47:52;;;;;;;0.82;0.82;;;9.10;72.90;;;;;;5063377;28;20048;-68
2023/12/26 07:50:18;;;;;;;0.25;0.25;;;6.60;73.30;;;;;;5061370;28;20609;-69
2023/12/26 07:52:44;;;;;;;0.85;0.85;;;9.00;79.50;;;;;;5054479;28;20052;-70
2023/12/26 07:55:11;;;;;;;0.20;0.20;;;9.20;81.40;;;;;;5063080;28;20032;-69
2023/12/26 07:57:37;;;;;;;4.13;0.77;;;8.80;82.60;;;;;;5063231;28;20045;-71
2023/12/26 08:00:04;;;;;;;1.17;1.10;;;9.00;81.50;;;;;;5060021;28;20056;-69
2023/12/26 08:02:29;;;;;;;0.28;0.28;;;8.70;75.90;;;;;;5052141;28;20045;-69
2023/12/26 08:04:55;;;;;;;7.07;1.65;;;8.60;80.40;;;;;;5047029;28;20045;-68
2023/12/26 08:07:21;;;;;;;0.57;0.57;;;8.90;79.70;;;;;;5059712;28;20059;-68
2023/12/26 08:09:46;;;;;;;0.20;0.20;;;9.00;77.00;;;;;;5063799;28;20051;-69
2023/12/26 08:12:12;;;;;;;0.10;0.10;;;9.00;81.20;;;;;;5068548;28;20045;-68
2023/12/26 08:14:38;;;;;;;3.63;0.65;;;8.80;82.00;;;;;;5065119;28;20513;-70
2023/12/26 08:17:04;;;;;;;1.60;1.35;;;9.00;80.90;;;;;;5062937;28;20040;-70
2023/12/26 08:19:31;;;;;;;0.90;0.90;;;8.80;74.10;;;;;;5060489;28;20355;-68
2023/12/26 08:21:57;;;;;;;7.22;0.60;;;8.80;73.90;;;;;;5035561;28;20093;-69
2023/12/26 08:24:22;;;;;;;2.45;0.73;;;8.80;70.40;;;;;;5050037;28;20787;-69
2023/12/26 08:26:53;;;;;;;0.75;0.45;;;8.80;66.40;;;;;;5068255;28;20473;-71
2023/12/26 08:29:19;;;;;;;0.20;0.20;;;9.30;73.00;;;;;;5052223;28;20040;-69
2023/12/26 08:31:44;;;;;;;0.30;0.30;;;9.10;73.70;;;;;;5050693;28;20049;-69
2023/12/26 08:34:10;;;;;;;0.38;0.38;;;8.90;70.40;;;;;;5054416;28;20054;-69
2023/12/26 08:36:36;;;;;;;0.20;0.20;;;9.20;75.20;;;;;;5052115;28;20076;-69
2023/12/26 08:39:02;;;;;;;3.70;1.58;;;8.90;70.90;;;;;;5055216;28;20127;-70
2023/12/26 08:41:27;;;;;;;1.55;1.20;;;8.80;63.30;;;;;;5051397;28;20116;-69
2023/12/26 08:43:53;;;;;;;0.73;0.73;;;9.10;62.60;;;;;;5066882;28;20101;-69
2023/12/26 08:46:19;;;;;;;15.45;0.68;;;9.20;65.40;;;;;;5060472;28;20044;-69
2023/12/26 08:48:44;;;;;;;1.13;0.73;;;9.20;63.90;;;;;;5053229;28;20097;-69
2023/12/26 08:51:10;;;;;;;0.30;0.30;;;9.10;70.10;;;;;;5055357;28;20481;-69
2023/12/26 08:53:36;;;;;;;0.20;0.20;;;9.50;67.90;;;;;;5052887;28;20045;-69
2023/12/26 08:56:05;;;;;;;2.35;1.00;;;9.10;64.40;;;;;;5043910;28;20051;-70
2023/12/26 08:58:32;;;;;;;0.20;0.20;;;9.50;70.30;;;;;;5053751;28;20441;-69
2023/12/26 09:01:00;;;;;;;0.20;0.20;;;9.20;67.50;;;;;;5053439;28;20109;-69
2023/12/26 09:03:26;;;;;;;2.03;0.32;;;9.40;52.50;;;;;;5057658;28;20045;-69
2023/12/26 09:05:52;;;;;;;0.20;0.20;;;9.10;50.80;;;;;;5056284;28;20048;-69
2023/12/26 09:08:17;;;;;;;0.43;0.43;;;9.20;49.60;;;;;;5059711;28;20131;-69
2023/12/26 09:10:43;;;;;;;37.58;1.17;;;9.80;46.30;;;;;;5056977;28;20053;-69
2023/12/26 09:13:09;;;;;;;0.63;0.63;;;9.10;40.60;;;;;;5057841;28;20051;-70
2023/12/26 09:15:34;;;;;;;1.27;0.68;;;9.50;36.60;;;;;;5037898;28;20041;-69
2023/12/26 09:18:00;;;;;;;0.50;0.50;;;9.50;31.00;;;;;;5058094;28;20040;-69
2023/12/26 09:20:26;;;;;;;3.58;0.93;;;9.20;27.50;;;;;;5055588;28;20040;-69
2023/12/26 09:22:51;;;;;;;0.10;0.10;;;9.50;30.00;;;;;;5060065;28;20086;-69
2023/12/26 09:25:17;;;;;;;0.47;0.47;;;9.60;34.90;;;;;;5057524;28;20044;-69
2023/12/26 09:27:43;;;;;;;4.53;1.23;;;9.70;36.30;;;;;;5060484;28;20756;-70
2023/12/26 09:30:09;;;;;;;8.38;1.75;;;11.40;34.80;;;;;;5058038;28;20091;-69
2023/12/26 09:32:35;;;;;;;;;;;9.50;40.00;;;;;;5060121;28;20048;-69
2023/12/26 09:35:00;;;;;;;6.10;1.30;;;9.30;41.10;;;;;;5058128;28;19920;-69
2023/12/26 09:37:26;;;;;;;0.40;0.40;;;9.40;34.00;;;;;;5060838;28;20560;-68
2023/12/26 09:39:52;;;;;;;2.95;0.82;;;9.40;41.20;;;;;;5057848;28;20440;-68
2023/12/26 09:42:24;;;;;;;0.30;0.30;;;9.60;36.60;;;;;;5061131;28;20072;-69
2023/12/26 09:44:50;;;;;;;0.20;0.20;;;9.40;32.20;;;;;;5090337;28;20132;-69
2023/12/26 09:47:19;;;;;;;3.00;0.85;;;9.70;35.30;;;;;;5060626;28;20128;-69
2023/12/26 09:49:47;;;;;;;11.82;1.05;;;9.60;36.40;;;;;;5057953;28;20127;-69
2023/12/26 09:52:13;;;;;;;1.55;1.17;;;9.90;32.50;;;;;;5043041;28;20048;-69
2023/12/26 09:54:44;;;;;;;1.20;0.75;;;9.60;26.50;;;;;;5057577;28;20049;-69
2023/12/26 09:57:10;;;;;;;0.50;0.47;;;9.70;29.30;;;;;;5056247;28;20049;-69
2023/12/26 09:59:37;;;;;;;0.25;0.25;;;9.60;33.50;;;;;;5056482;28;20098;-70
2023/12/26 10:02:09;;;;;;;0.30;0.30;;;9.50;30.10;;;;;;5051951;28;20056;-69
2023/12/26 10:04:34;;;;;;;1.40;0.40;;;9.50;27.00;;;;;;5043775;28;20045;-70
2023/12/26 10:07:00;;;;;;;0.32;0.32;;;9.80;20.90;;;;;;5066592;28;20523;-68
2023/12/26 10:09:26;;;;;;;3.00;0.80;;;9.90;18.80;;;;;;5061822;28;20045;-70
2023/12/26 10:11:52;;;;;;;0.20;0.20;;;9.70;23.30;;;;;;5064395;28;20135;-69
2023/12/26 10:14:31;;;;;;;;;;;9.60;18.30;;;;;;5056005;28;20045;-69
2023/12/26 10:16:58;;;;;;;4.13;1.77;;;10.00;26.50;;;;;;5059991;28;19982;-69
2023/12/26 10:19:24;;;;;;;0.40;0.40;;;9.70;26.80;;;;;;5062316;28;20037;-69
2023/12/26 10:21:51;;;;;;;3.10;0.95;;;9.60;24.80;;;;;;5066713;28;20052;-69
2023/12/26 10:24:18;;;;;;;1.38;0.52;;;9.90;25.80;;;;;;5062431;28;20056;-70
2023/12/26 10:26:43;;;;;;;0.38;0.38;;;9.70;19.40;;;;;;5066721;28;20048;-71
2023/12/26 10:29:13;;;;;;;1.58;1.08;;;9.60;25.10;;;;;;5062539;28;20048;-69
2023/12/26 10:31:43;;;;;;;0.40;0.40;;;9.80;22.60;;;;;;5066617;28;20098;-70
2023/12/26 10:34:16;;;;;;;0.10;0.10;;;9.80;23.90;;;;;;5096428;28;20497;-69
2023/12/26 10:36:44;;;;;;;1.15;0.30;;;9.90;29.70;;;;;;5064761;28;20153;-70
2023/12/26 10:39:11;;;;;;;0.28;0.28;;;9.90;21.80;;;;;;5064810;28;20052;-73
2023/12/26 10:41:40;;;;;;;0.20;0.20;;;9.80;23.90;;;;;;5096983;28;20056;-73
2023/12/26 10:44:06;;;;;;;1.02;0.30;;;9.80;25.10;;;;;;5063634;28;20127;-72
2023/12/26 10:46:32;;;;;;;2.60;1.42;;;10.00;23.80;;;;;;5048813;28;20580;-72
2023/12/26 10:49:01;;;;;;;;;;;9.70;24.60;;;;;;5061919;28;20063;-70
2023/12/26 10:51:29;;;;;;;6.60;0.40;;;9.90;24.30;;;;;;5048260;28;19931;-68
2023/12/26 10:54:24;;;;;;;0.32;0.32;;;10.00;24.50;;;;;;5060600;28;20052;-70
2023/12/26 10:56:52;;;;;;;0.43;0.38;;;9.80;31.90;;;;;;5055335;28;20052;-69
2023/12/26 13:51:28;;;;;;;0.20;0.20;;;;;;;;;;5043998;28;20049;-69
2023/12/26 13:54:32;;;;;;;10.50;0.75;;;8.60;92.10;;;;;;5071070;28;20056;-69
2023/12/26 13:57:35;;;;;;;0.20;0.20;;;8.40;86.70;;;;;;5061250;28;20105;-70
2023/12/26 14:00:38;;;;;;;0.10;0.10;;;8.70;87.60;;;;;;5068564;28;20413;-69
2023/12/26 14:03:49;;;;;;;0.15;0.15;;;9.30;70.70;;;;;;5066688;28;20110;-70
2023/12/26 14:06:52;;;;;;;0.10;0.10;;;8.70;61.00;;;;;;5064087;28;20147;-71
2023/12/26 14:09:37;;;;;;;0.25;0.25;;;;;;;;;;5072101;28;20102;-70
2023/12/26 14:12:40;;;;;;;0.85;0.32;;;8.50;50.10;;;;;;5053563;28;20054;-69
2023/12/26 14:15:43;;;;;;;0.20;0.20;;;8.50;38.90;;;;;;5051985;28;20052;-68
2023/12/26 14:18:46;;;;;;;0.40;0.40;;;8.70;37.20;;;;;;5054252;28;20102;-70
2023/12/26 14:21:30;;;;;;;0.10;0.10;;;;;;;;;;5060089;28;20037;-69
2023/12/26 14:24:34;;;;;;;0.20;0.20;;;8.60;47.70;;;;;;5061630;28;20136;-70
2023/12/26 14:27:37;;;;;;;0.52;0.52;;;8.50;44.70;;;;;;5057657;28;20105;-69
2023/12/26 14:30:40;;;;;;;0.20;0.20;;;8.50;34.60;;;;;;5056244;28;20151;-69
2023/12/26 14:33:43;;;;;;;0.20;0.20;;;8.60;22.90;;;;;;5058577;28;20052;-69
2023/12/26 14:36:47;;;;;;;0.20;0.20;;;8.30;21.10;;;;;;5092970;28;20037;-70
2023/12/26 14:39:50;;;;;;;0.10;0.10;;;8.10;15.90;;;;;;5047133;28;20048;-70
2023/12/26 14:42:54;;;;;;;0.32;0.32;;;8.40;9.60;;;;;;5055929;28;20049;-69
2023/12/26 14:45:58;;;;;;;0.40;0.40;;;8.80;1.00;;;;;;5040859;28;20040;-70
2023/12/26 14:49:01;;;;;;;0.20;0.20;;;8.50;1.00;;;;;;5065855;28;20049;-70
2023/12/26 14:52:04;;;;;;;0.43;0.40;;;8.50;1.00;;;;;;5061530;28;20091;-72
2023/12/26 14:55:09;;;;;;;0.85;0.85;;;8.50;1.00;;;;;;5053095;28;20394;-68
2023/12/26 14:58:12;;;;;;;0.20;0.20;;;8.50;1.00;;;;;;5054049;28;20051;-71
2023/12/26 15:01:15;;;;;;;2.38;0.68;;;8.20;1.00;;;;;;5048589;28;20048;-70
2023/12/26 15:03:41;;;;;;;0.28;0.28;;;8.20;1.00;;;;;;5058389;28;20063;-68
2023/12/26 15:06:14;;;;;;;0.20;0.20;;;8.30;1.00;;;;;;5057612;28;20049;-70
2023/12/26 15:08:40;;;;;;;0.20;0.20;;;8.20;1.00;;;;;;5053264;28;20473;-70
2023/12/26 15:11:13;;;;;;;0.20;0.20;;;8.40;1.00;;;;;;5052825;28;20060;-69
2023/12/26 15:13:39;;;;;;;0.20;0.20;;;8.10;1.00;;;;;;5062936;28;20128;-69
2023/12/26 15:16:14;;;;;;;0.30;0.30;;;8.20;1.00;;;;;;5072281;28;20912;-69
2023/12/26 15:18:40;;;;;;;0.20;0.20;;;7.80;1.20;;;;;;5058498;28;20128;-71
2023/12/26 15:21:06;;;;;;;0.20;0.20;;;7.70;7.10;;;;;;5051062;28;20119;-70
2023/12/26 15:23:31;;;;;;;0.20;0.20;;;7.90;9.60;;;;;;5095896;28;20153;-69
2023/12/26 15:25:57;;;;;;;0.70;0.70;;;7.70;15.10;;;;;;5071692;28;20032;-68
2023/12/26 15:28:23;;;;;;;0.30;0.30;;;7.60;20.00;;;;;;5070633;28;20646;-69
2023/12/26 15:30:48;;;;;;;0.40;0.40;;;7.50;21.50;;;;;;5070533;28;20051;-70
2023/12/26 15:33:16;;;;;;;0.20;0.20;;;;;;;;;;5070285;28;20500;-70
2023/12/26 15:35:45;;;;;;;0.20;0.20;;;7.50;24.70;;;;;;5069944;28;20052;-69
2023/12/26 15:38:11;;;;;;;0.60;0.60;;;7.50;25.10;;;;;;5071960;28;20044;-70
2023/12/26 15:40:37;;;;;;;0.40;0.40;;;7.30;23.70;;;;;;5070846;28;20055;-70
2023/12/26 15:43:03;;;;;;;0.88;0.80;;;7.70;18.40;;;;;;5070143;28;20051;-69
2023/12/26 15:45:28;;;;;;;0.20;0.20;;;8.00;1.00;;;;;;5070238;28;20097;-69
2023/12/26 15:47:55;;;;;;;0.20;0.20;;;7.70;1.00;;;;;;5070393;28;20045;-70
2023/12/26 15:50:22;;;;;;;0.20;0.20;;;7.80;1.00;;;;;;5102661;28;20599;-69
2023/12/26 15:52:49;;;;;;;0.60;0.60;;;8.00;1.00;;;;;;5071368;28;20137;-70
2023/12/26 15:55:15;;;;;;;0.20;0.20;;;7.80;1.00;;;;;;5069767;28;20092;-71
2023/12/26 15:57:41;;;;;;;0.20;0.20;;;7.70;1.00;;;;;;5071450;28;20071;-70
2023/12/26 16:00:07;;;;;;;0.20;0.20;;;7.80;1.00;;;;;;5065111;28;20552;-69
2023/12/26 16:02:33;;;;;;;0.20;0.20;;;7.90;1.00;;;;;;5051385;28;20064;-70